Seneca, Wisconsin
Current Conditions -  °F | °C
As of 12:53 PM on Friday 24 Oct 2014 (Local Time) from KOVS Reporting Station
Few Clouds Few Clouds  
Wind Chill: 62°   Ceiling: Unl
Heat Index: 62°   Visibility: 10mi
Dew Point: 53°   Wind: 8mph
Humidity: 72%   Direction: 190°S
Pressure: 29.98"   Gusts: NA
Location:  43.27°N, 90.96°W
Report Text: KOVS 241753Z AUTO 19007KT 10SM FEW014 17/12 A2998 RMK AO2 SLP153 T01670117 10167 20106 58014
Loading
Personal Weather Stations






























Interactive Weather Map
Tropical Storm Tracking
New forecast layout! Learn more

10-Day Weather Forecast

Advertisements
Track Severe Weather on mobile